createdAt,value
2023-04-14T00:04:20.155Z,4.69
2023-04-14T00:09:25.489Z,4.61
2023-04-14T00:14:29.006Z,4.48
2023-04-14T00:19:32.407Z,4.39
2023-04-14T00:24:43.252Z,4.39
2023-04-14T00:29:46.848Z,4.09
2023-04-14T00:34:50.342Z,4.28
2023-04-14T00:39:55.194Z,3.87
2023-04-14T00:44:58.789Z,3.87
2023-04-14T00:50:02.930Z,3.92
2023-04-14T00:55:10.378Z,3.83
2023-04-14T01:00:15.891Z,3.72
2023-04-14T01:05:19.625Z,3.57
2023-04-14T01:10:29.539Z,3.45
2023-04-14T01:15:39.739Z,3.37
2023-04-14T01:20:46.302Z,3.31
2023-04-14T01:26:19.844Z,3.17
2023-04-14T01:31:28.282Z,3.19
2023-04-14T01:36:41.548Z,3.19
2023-04-14T01:41:48.739Z,3.21
2023-04-14T01:46:57.102Z,3.14
2023-04-14T01:52:02.185Z,2.97
2023-04-14T01:57:07.803Z,2.94
2023-04-14T02:02:15.280Z,2.89
2023-04-14T02:07:20.672Z,2.60
2023-04-14T02:12:25.955Z,2.49
2023-04-14T02:17:32.291Z,2.38
2023-04-14T02:22:35.810Z,2.45
2023-04-14T02:27:43.025Z,2.35
2023-04-14T02:32:54.588Z,2.36
2023-04-14T02:38:08.573Z,2.34
2023-04-14T02:43:18.240Z,2.29
2023-04-14T02:48:26.084Z,2.22
2023-04-14T02:53:30.014Z,2.31
2023-04-14T02:58:34.349Z,2.25
2023-04-14T03:03:39.878Z,2.36
2023-04-14T03:08:44.516Z,2.62
2023-04-14T03:13:50.348Z,2.46
2023-04-14T03:18:56.565Z,2.51
2023-04-14T03:24:01.413Z,2.40
2023-04-14T03:29:07.372Z,2.34
2023-04-14T03:34:15.528Z,2.31
2023-04-14T03:39:21.185Z,2.89
2023-04-14T03:44:27.876Z,2.82
2023-04-14T03:49:34.609Z,3.27
2023-04-14T03:54:40.608Z,3.48
2023-04-14T03:59:46.152Z,3.74
2023-04-14T04:04:51.667Z,4.12
2023-04-14T04:09:57.613Z,4.66
2023-04-14T04:15:01.282Z,7.80
2023-04-14T04:20:11.434Z,9.28
2023-04-14T04:25:15.845Z,11.37
2023-04-14T04:30:21.086Z,14.02
2023-04-14T04:35:27.685Z,13.78
2023-04-14T04:40:37.294Z,13.33
2023-04-14T04:46:01.303Z,13.69
2023-04-14T04:51:06.377Z,17.21
2023-04-14T04:56:10.261Z,19.13
2023-04-14T05:01:15.124Z,18.78
2023-04-14T05:06:19.989Z,18.91
2023-04-14T05:11:23.349Z,19.67
2023-04-14T05:16:28.534Z,19.00
2023-04-14T05:21:33.526Z,20.13
2023-04-14T05:26:57.893Z,21.23
2023-04-14T05:32:00.802Z,23.10
2023-04-14T05:37:05.691Z,22.74
2023-04-14T05:42:09.199Z,22.73
2023-04-14T05:47:12.721Z,22.81
2023-04-14T05:52:17.936Z,22.30
2023-04-14T05:57:21.607Z,22.23
2023-04-14T06:02:25.348Z,23.64
2023-04-14T06:07:30.400Z,25.86
2023-04-14T06:12:34.183Z,24.42
2023-04-14T06:17:37.791Z,24.89
2023-04-14T06:22:43.536Z,25.32
2023-04-14T06:27:47.493Z,24.14
2023-04-14T06:32:54.437Z,25.27
2023-04-14T06:37:59.906Z,25.00
2023-04-14T06:43:03.452Z,24.38
2023-04-14T06:48:08.160Z,25.14
2023-04-14T06:53:13.718Z,26.51
2023-04-14T06:58:17.400Z,22.68
2023-04-14T07:03:22.904Z,23.96
2023-04-14T07:08:32.273Z,23.34
2023-04-14T07:13:36.592Z,24.30
2023-04-14T07:18:40.278Z,24.07
2023-04-14T07:23:46.691Z,24.95
2023-04-14T07:28:51.041Z,25.24
2023-04-14T07:33:55.657Z,25.81
2023-04-14T07:39:01.060Z,26.49
2023-04-14T07:44:04.673Z,24.78
2023-04-14T07:49:08.500Z,24.66
2023-04-14T07:54:13.968Z,25.02
2023-04-14T07:59:17.714Z,25.72
2023-04-14T08:04:21.376Z,24.65
2023-04-14T08:09:26.578Z,22.60
2023-04-14T08:14:30.177Z,23.74
2023-04-14T08:19:34.078Z,22.77
2023-04-14T08:24:38.931Z,21.24
2023-04-14T08:29:42.680Z,19.57
2023-04-14T08:35:35.344Z,18.63
2023-04-14T08:40:14.051Z,17.28
2023-04-14T08:45:21.467Z,15.26
2023-04-14T08:50:28.600Z,14.74
2023-04-14T08:55:34.158Z,13.02
2023-04-14T09:00:39.101Z,12.63
2023-04-14T09:05:44.093Z,12.14
2023-04-14T09:10:49.848Z,11.25
2023-04-14T09:15:54.825Z,10.48
2023-04-14T09:21:49.722Z,10.84
2023-04-14T09:26:27.773Z,11.11
2023-04-14T09:31:31.738Z,10.94
2023-04-14T09:36:35.282Z,10.84
2023-04-14T09:41:49.297Z,10.87
2023-04-14T09:47:05.333Z,10.83
2023-04-14T09:52:10.610Z,10.60
2023-04-14T09:57:26.482Z,10.45
2023-04-14T10:02:30.941Z,10.38
2023-04-14T10:07:34.842Z,10.38
2023-04-14T10:12:42.394Z,10.26
2023-04-14T10:17:45.950Z,10.42
2023-04-14T10:22:49.909Z,10.08
2023-04-14T10:27:55.342Z,10.19
2023-04-14T10:32:59.570Z,9.95
2023-04-14T10:38:04.808Z,9.95
2023-04-14T10:43:14.504Z,10.12
2023-04-14T10:48:18.661Z,10.51
2023-04-14T10:53:25.588Z,10.21
2023-04-14T10:58:30.889Z,10.40
2023-04-14T11:03:46.138Z,10.46
2023-04-14T11:08:52.517Z,10.38
2023-04-14T11:14:17.575Z,10.21
2023-04-14T11:19:21.819Z,10.54
2023-04-14T11:24:26.714Z,10.38
2023-04-14T11:29:31.762Z,10.10
2023-04-14T11:34:35.642Z,10.12
2023-04-14T11:39:39.534Z,10.27
2023-04-14T11:44:44.854Z,10.68
2023-04-14T11:49:48.831Z,10.55
2023-04-14T11:54:52.983Z,10.55
2023-04-14T11:59:58.567Z,10.46
2023-04-14T12:05:02.345Z,10.60
2023-04-14T12:10:08.794Z,10.37
2023-04-14T12:15:14.961Z,10.18
2023-04-14T12:20:18.912Z,10.33
2023-04-14T12:25:22.645Z,10.08
2023-04-14T12:30:27.683Z,10.30
2023-04-14T12:35:35.981Z,10.37
2023-04-14T12:40:40.786Z,10.28
2023-04-14T12:45:47.583Z,10.08
2023-04-14T12:50:52.371Z,10.33
2023-04-14T12:56:09.096Z,10.15
2023-04-14T13:01:15.616Z,10.31
2023-04-14T13:06:20.318Z,10.33
2023-04-14T13:11:25.892Z,10.15
2023-04-14T13:16:30.982Z,10.02
2023-04-14T13:21:35.162Z,10.00
2023-04-14T13:26:38.970Z,9.97
2023-04-14T13:31:43.897Z,9.97
2023-04-14T13:36:47.114Z,9.99
2023-04-14T13:41:51.979Z,9.78
2023-04-14T13:46:56.927Z,9.84
2023-04-14T13:52:00.709Z,9.83
2023-04-14T13:57:05.566Z,9.93
2023-04-14T14:02:10.637Z,9.84
2023-04-14T14:07:14.336Z,9.79
2023-04-14T14:12:18.581Z,9.63
2023-04-14T14:17:23.928Z,9.44
2023-04-14T14:22:27.733Z,9.26
2023-04-14T14:27:31.163Z,9.32
2023-04-14T14:32:36.200Z,9.23
2023-04-14T14:37:41.013Z,9.14
2023-04-14T14:42:44.976Z,9.10
2023-04-14T14:47:49.973Z,8.84
2023-04-14T14:52:56.328Z,8.86
2023-04-14T14:58:01.274Z,8.70
2023-04-14T15:03:06.875Z,8.46
2023-04-14T15:08:11.051Z,8.62
2023-04-14T15:13:15.002Z,8.52
2023-04-14T15:18:21.272Z,8.40
2023-04-14T15:23:24.929Z,8.41
2023-04-14T15:28:28.527Z,8.34
2023-04-14T15:33:33.524Z,7.92
2023-04-14T15:38:36.703Z,7.91
2023-04-14T15:43:40.507Z,7.78
2023-04-14T15:48:45.713Z,7.65
2023-04-14T15:53:49.239Z,7.57
2023-04-14T15:58:52.762Z,7.50
2023-04-14T16:03:57.757Z,7.31
2023-04-14T16:09:01.439Z,7.15
2023-04-14T16:14:05.625Z,7.02
2023-04-14T16:19:10.552Z,7.03
2023-04-14T16:24:13.750Z,6.89
2023-04-14T16:29:17.214Z,6.76
2023-04-14T16:34:22.423Z,6.66
2023-04-14T16:39:26.112Z,6.43
2023-04-14T16:44:29.957Z,6.43
2023-04-14T16:49:34.858Z,6.31
2023-04-14T16:54:38.590Z,6.20
2023-04-14T16:59:42.175Z,6.25
2023-04-14T17:04:47.245Z,6.09
2023-04-14T17:09:51.018Z,6.04
2023-04-14T17:14:54.440Z,5.88
2023-04-14T17:19:59.753Z,5.74
2023-04-14T17:25:06.581Z,5.66
2023-04-14T17:30:12.038Z,5.54
2023-04-14T17:35:17.251Z,5.48
2023-04-14T17:40:20.478Z,5.33
2023-04-14T17:45:24.164Z,5.35
2023-04-14T17:50:30.431Z,5.27
2023-04-14T17:55:34.185Z,5.14
2023-04-14T18:00:37.674Z,5.17
2023-04-14T18:05:42.757Z,5.04
2023-04-14T18:10:46.054Z,4.97
2023-04-14T18:15:51.124Z,4.86
2023-04-14T18:20:56.085Z,4.78
2023-04-14T18:31:10.027Z,4.78
2023-04-14T18:36:16.128Z,4.65
2023-04-14T18:41:20.263Z,4.52
2023-04-14T18:46:23.867Z,4.37
2023-04-14T18:51:28.941Z,4.42
2023-04-14T18:56:32.689Z,4.45
2023-04-14T19:01:36.259Z,4.32
2023-04-14T19:06:41.423Z,4.35
2023-04-14T19:11:46.164Z,4.39
2023-04-14T19:16:49.847Z,4.32
2023-04-14T19:21:55.086Z,4.25
2023-04-14T19:26:58.447Z,3.98
2023-04-14T19:32:02.548Z,4.15
2023-04-14T19:37:07.571Z,4.18
2023-04-14T19:42:11.011Z,4.01
2023-04-14T19:47:14.655Z,3.91
2023-04-14T19:52:20.251Z,3.84
2023-04-14T19:57:24.142Z,3.56
2023-04-14T20:02:30.138Z,3.50
2023-04-14T20:07:35.561Z,3.51
2023-04-14T20:12:39.021Z,3.57
2023-04-14T20:17:43.087Z,3.50
2023-04-14T20:22:49.506Z,3.53
2023-04-14T20:27:53.057Z,3.45
2023-04-14T20:32:56.730Z,3.39
2023-04-14T20:38:01.772Z,3.22
2023-04-14T20:43:06.347Z,3.16
2023-04-14T20:48:09.809Z,3.29
2023-04-14T20:53:15.248Z,3.19
2023-04-14T20:58:18.707Z,3.15
2023-04-14T21:03:24.007Z,3.07
2023-04-14T21:08:29.950Z,3.04
2023-04-14T21:15:25.508Z,3.01
2023-04-14T21:18:56.862Z,3.07
2023-04-14T21:24:02.150Z,3.00
2023-04-14T21:29:05.679Z,3.05
2023-04-14T21:34:09.108Z,3.07
2023-04-14T21:39:13.997Z,2.97
2023-04-14T21:44:17.270Z,2.51
2023-04-14T21:49:20.827Z,2.76
2023-04-14T21:54:26.656Z,2.77
2023-04-14T21:59:30.109Z,2.65
2023-04-14T22:04:36.958Z,2.66
2023-04-14T22:09:44.195Z,2.63
2023-04-14T22:14:47.973Z,2.65
2023-04-14T22:19:51.563Z,2.50
2023-04-14T22:24:57.304Z,2.52
2023-04-14T22:30:01.573Z,2.48
2023-04-14T22:35:07.429Z,2.41
2023-04-14T22:40:13.298Z,2.34
2023-04-14T22:45:16.571Z,2.34
2023-04-14T22:50:19.982Z,2.27
2023-04-14T22:55:24.890Z,2.14
2023-04-14T23:00:28.733Z,2.06
2023-04-14T23:05:32.137Z,2.17
2023-04-14T23:10:36.995Z,2.15
2023-04-14T23:15:40.458Z,2.06
2023-04-14T23:20:44.704Z,2.08
2023-04-14T23:25:49.810Z,2.03
2023-04-14T23:30:53.231Z,1.91
2023-04-14T23:35:56.794Z,1.77
2023-04-14T23:41:01.808Z,1.68
2023-04-14T23:46:05.024Z,1.63
2023-04-14T23:51:16.110Z,1.56
2023-04-14T23:56:24.908Z,1.53
